Time,TemperatureF,DewpointF,PressureIn,WindDirection,WindDirectionDegrees,WindSpeedMPH,WindSpeedGustMPH,Humidity,HourlyPrecipIn,Conditions,Clouds,dailyrainin,SoftwareType,DateUTC
2013-02-22 00:04:00,45.5,44.0,29.95,SE,132,0.0,4.0,95,0.06,,,0.00,weatherlink.com 1.10,2013-02-22 06:04:00,
2013-02-22 00:19:00,45.5,44.0,29.94,ESE,104,0.0,2.0,95,0.04,,,0.00,weatherlink.com 1.10,2013-02-22 06:19:00,
2013-02-22 00:34:00,45.5,44.0,29.94,East,88,1.0,2.0,95,0.03,,,0.02,weatherlink.com 1.10,2013-02-22 06:34:00,
2013-02-22 00:49:00,45.5,44.0,29.95,ESE,106,0.0,2.0,95,0.06,,,0.06,weatherlink.com 1.10,2013-02-22 06:49:00,
2013-02-22 01:04:00,45.5,44.0,29.94,ENE,59,0.0,2.0,95,0.12,,,0.12,weatherlink.com 1.10,2013-02-22 07:04:00,
2013-02-22 01:19:00,45.4,44.0,29.94,ENE,71,1.0,3.0,95,0.18,,,0.18,weatherlink.com 1.10,2013-02-22 07:19:00,
2013-02-22 01:34:00,45.4,44.0,29.94,SE,126,0.0,1.0,95,0.17,,,0.19,weatherlink.com 1.10,2013-02-22 07:34:00,
2013-02-22 01:49:00,45.4,44.0,29.95,NNW,334,0.0,2.0,95,0.13,,,0.20,weatherlink.com 1.10,2013-02-22 07:49:00,
2013-02-22 02:04:00,45.5,44.0,29.95,North,360,0.0,4.0,95,0.09,,,0.22,weatherlink.com 1.10,2013-02-22 08:04:00,
2013-02-22 02:19:00,45.6,44.0,29.95,ENE,58,0.0,2.0,95,0.07,,,0.25,weatherlink.com 1.10,2013-02-22 08:19:00,
2013-02-22 02:34:00,45.8,45.0,29.95,ESE,121,0.0,1.0,95,0.05,,,0.25,weatherlink.com 1.10,2013-02-22 08:34:00,
2013-02-22 02:49:00,46.0,45.0,29.95,NE,45,0.0,3.0,96,0.05,,,0.25,weatherlink.com 1.10,2013-02-22 08:49:00,
2013-02-22 03:04:00,46.0,45.0,29.95,NNE,14,0.0,4.0,96,0.02,,,0.25,weatherlink.com 1.10,2013-02-22 09:04:00,
2013-02-22 03:19:00,45.9,45.0,29.94,SE,134,0.0,4.0,95,0.00,,,0.25,weatherlink.com 1.10,2013-02-22 09:19:00,
2013-02-22 03:34:00,45.9,45.0,29.93,NNE,28,1.0,5.0,95,0.00,,,0.25,weatherlink.com 1.10,2013-02-22 09:34:00,
2013-02-22 03:49:00,45.9,45.0,29.94,ENE,72,0.0,5.0,95,0.00,,,0.25,weatherlink.com 1.10,2013-02-22 09:49:00,
2013-02-22 04:04:00,46.0,45.0,29.95,ESE,119,1.0,2.0,95,0.00,,,0.25,weatherlink.com 1.10,2013-02-22 10:04:00,
2013-02-22 04:19:00,46.0,45.0,29.96,SSE,155,0.0,6.0,95,0.00,,,0.25,weatherlink.com 1.10,2013-02-22 10:19:00,
2013-02-22 04:34:00,46.0,45.0,29.96,ESE,117,0.0,4.0,95,0.00,,,0.25,weatherlink.com 1.10,2013-02-22 10:34:00,
2013-02-22 04:49:00,45.9,45.0,29.96,ENE,68,0.0,4.0,95,0.00,,,0.25,weatherlink.com 1.10,2013-02-22 10:49:00,
2013-02-22 05:04:00,46.0,45.0,29.98,SSE,167,0.0,0.0,95,0.00,,,0.25,weatherlink.com 1.10,2013-02-22 11:04:00,
2013-02-22 05:19:00,45.9,45.0,29.99,ESE,117,0.0,2.0,95,0.01,,,0.26,weatherlink.com 1.10,2013-02-22 11:19:00,
2013-02-22 05:34:00,45.9,45.0,29.98,East,96,0.0,3.0,95,0.01,,,0.26,weatherlink.com 1.10,2013-02-22 11:34:00,
2013-02-22 05:49:00,45.9,45.0,29.97,ENE,61,0.0,3.0,95,0.01,,,0.26,weatherlink.com 1.10,2013-02-22 11:49:00,
2013-02-22 06:04:00,45.9,45.0,29.98,ESE,119,0.0,5.0,95,0.01,,,0.26,weatherlink.com 1.10,2013-02-22 12:04:00,
2013-02-22 06:19:00,45.8,45.0,29.98,ESE,102,1.0,3.0,95,0.00,,,0.26,weatherlink.com 1.10,2013-02-22 12:19:00,
2013-02-22 06:35:00,45.8,45.0,29.99,ENE,73,0.0,5.0,95,0.00,,,0.26,weatherlink.com 1.10,2013-02-22 12:35:00,
2013-02-22 06:49:00,45.9,45.0,30.00,NNE,12,0.0,3.0,96,0.00,,,0.26,weatherlink.com 1.10,2013-02-22 12:49:00,
2013-02-22 07:04:00,46.0,45.0,30.01,NW,325,0.0,2.0,95,0.00,,,0.26,weatherlink.com 1.10,2013-02-22 13:04:00,
2013-02-22 07:19:00,46.1,45.0,30.01,ENE,72,0.0,3.0,96,0.00,,,0.26,weatherlink.com 1.10,2013-02-22 13:19:00,
2013-02-22 07:34:00,46.1,45.0,30.01,ESE,109,0.0,1.0,96,0.00,,,0.26,weatherlink.com 1.10,2013-02-22 13:34:00,
2013-02-22 07:49:00,46.1,45.0,30.01,SE,129,0.0,4.0,96,0.00,,,0.26,weatherlink.com 1.10,2013-02-22 13:49:00,
2013-02-22 08:04:00,46.1,45.0,30.01,SSE,165,0.0,5.0,95,0.00,,,0.26,weatherlink.com 1.10,2013-02-22 14:04:00,
2013-02-22 08:19:00,46.1,45.0,30.01,ESE,108,1.0,2.0,95,0.00,,,0.26,weatherlink.com 1.10,2013-02-22 14:19:00,
2013-02-22 08:35:00,46.0,45.0,30.02,NW,313,0.0,1.0,95,0.00,,,0.26,weatherlink.com 1.10,2013-02-22 14:35:00,
2013-02-22 08:49:00,46.1,45.0,30.02,East,92,0.0,1.0,95,0.00,,,0.26,weatherlink.com 1.10,2013-02-22 14:49:00,
2013-02-22 09:04:00,46.1,45.0,30.02,ESE,111,1.0,4.0,95,0.00,,,0.26,weatherlink.com 1.10,2013-02-22 15:04:00,
2013-02-22 09:19:00,46.1,45.0,30.02,ESE,105,1.0,3.0,95,0.00,,,0.26,weatherlink.com 1.10,2013-02-22 15:19:00,
2013-02-22 09:34:00,46.3,45.0,30.03,SSE,160,0.0,3.0,95,0.00,,,0.26,weatherlink.com 1.10,2013-02-22 15:34:00,
2013-02-22 09:50:00,46.4,45.0,30.03,NNE,28,0.0,2.0,94,0.00,,,0.26,weatherlink.com 1.10,2013-02-22 15:50:00,
2013-02-22 10:05:00,46.5,45.0,30.03,ESE,116,0.0,2.0,94,0.00,,,0.26,weatherlink.com 1.10,2013-02-22 16:05:00,
2013-02-22 10:20:00,46.7,45.0,30.04,NE,46,0.0,2.0,94,0.00,,,0.26,weatherlink.com 1.10,2013-02-22 16:20:00,
2013-02-22 10:35:00,46.8,45.0,30.04,ENE,71,0.0,6.0,94,0.00,,,0.26,weatherlink.com 1.10,2013-02-22 16:35:00,
2013-02-22 10:50:00,46.9,45.0,30.04,SE,128,0.0,1.0,94,0.00,,,0.26,weatherlink.com 1.10,2013-02-22 16:50:00,
2013-02-22 11:05:00,47.0,45.0,30.05,East,97,0.0,6.0,94,0.00,,,0.26,weatherlink.com 1.10,2013-02-22 17:05:00,
2013-02-22 11:20:00,47.1,45.0,30.04,East,101,0.0,2.0,93,0.00,,,0.26,weatherlink.com 1.10,2013-02-22 17:20:00,
2013-02-22 11:35:00,47.2,46.0,30.02,ENE,75,0.0,3.0,94,0.00,,,0.26,weatherlink.com 1.10,2013-02-22 17:35:00,
2013-02-22 11:50:00,47.3,45.0,30.03,SSE,166,0.0,1.0,93,0.00,,,0.26,weatherlink.com 1.10,2013-02-22 17:50:00,
2013-02-22 12:05:00,47.3,45.0,30.02,NE,56,0.0,3.0,93,0.00,,,0.26,weatherlink.com 1.10,2013-02-22 18:05:00,
2013-02-22 12:20:00,47.3,45.0,30.01,NE,50,0.0,2.0,93,0.00,,,0.26,weatherlink.com 1.10,2013-02-22 18:20:00,
2013-02-22 12:35:00,47.5,46.0,30.02,NE,44,1.0,4.0,93,0.00,,,0.26,weatherlink.com 1.10,2013-02-22 18:35:00,
2013-02-22 12:50:00,47.8,46.0,30.01,NNW,333,1.0,3.0,93,0.00,,,0.26,weatherlink.com 1.10,2013-02-22 18:50:00,
2013-02-22 13:05:00,47.8,46.0,30.00,NE,48,0.0,1.0,92,0.00,,,0.26,weatherlink.com 1.10,2013-02-22 19:05:00,
2013-02-22 13:20:00,47.9,46.0,30.01,North,360,0.0,2.0,92,0.00,,,0.26,weatherlink.com 1.10,2013-02-22 19:20:00,
2013-02-22 13:35:00,47.9,46.0,30.01,NE,36,0.0,2.0,92,0.00,,,0.26,weatherlink.com 1.10,2013-02-22 19:35:00,
2013-02-22 13:50:00,47.6,45.0,29.99,NE,41,0.0,2.0,92,0.00,,,0.26,weatherlink.com 1.10,2013-02-22 19:50:00,
2013-02-22 14:20:00,47.3,45.0,29.97,ESE,110,0.0,1.0,93,0.00,,,0.26,weatherlink.com 1.10,2013-02-22 20:20:00,
2013-02-22 14:35:00,47.2,45.0,29.97,ESE,104,1.0,1.0,93,0.00,,,0.26,weatherlink.com 1.10,2013-02-22 20:35:00,
2013-02-22 14:50:00,47.2,45.0,29.97,NE,41,0.0,3.0,92,0.00,,,0.26,weatherlink.com 1.10,2013-02-22 20:50:00,
2013-02-22 15:05:00,46.9,45.0,29.97,ENE,74,0.0,1.0,93,0.00,,,0.26,weatherlink.com 1.10,2013-02-22 21:05:00,
2013-02-22 15:20:00,46.8,45.0,29.96,NE,45,0.0,3.0,93,0.00,,,0.26,weatherlink.com 1.10,2013-02-22 21:20:00,
2013-02-22 15:35:00,46.5,45.0,29.96,East,97,0.0,3.0,93,0.00,,,0.26,weatherlink.com 1.10,2013-02-22 21:35:00,
2013-02-22 15:50:00,46.1,44.0,29.99,NE,54,0.0,2.0,93,0.00,,,0.26,weatherlink.com 1.10,2013-02-22 21:50:00,
2013-02-22 16:05:00,45.8,44.0,30.00,NE,34,0.0,2.0,93,0.00,,,0.26,weatherlink.com 1.10,2013-02-22 22:05:00,
2013-02-22 16:20:00,45.6,44.0,30.00,ENE,70,0.0,1.0,94,0.00,,,0.26,weatherlink.com 1.10,2013-02-22 22:20:00,
2013-02-22 16:35:00,45.4,44.0,29.98,NE,53,0.0,2.0,94,0.00,,,0.26,weatherlink.com 1.10,2013-02-22 22:35:00,
2013-02-22 16:50:00,45.2,44.0,29.99,NW,311,0.0,1.0,94,0.00,,,0.26,weatherlink.com 1.10,2013-02-22 22:50:00,
2013-02-22 17:05:00,45.1,44.0,30.00,NE,34,0.0,2.0,95,0.00,,,0.26,weatherlink.com 1.10,2013-02-22 23:05:00,
2013-02-22 17:20:00,45.0,44.0,30.01,NNE,26,0.0,0.0,95,0.00,,,0.26,weatherlink.com 1.10,2013-02-22 23:20:00,
2013-02-22 17:35:00,44.9,44.0,30.01,NNE,24,0.0,1.0,95,0.00,,,0.26,weatherlink.com 1.10,2013-02-22 23:35:00,
2013-02-22 17:50:00,44.7,43.0,29.98,North,5,0.0,2.0,95,0.00,,,0.26,weatherlink.com 1.10,2013-02-22 23:50:00,
2013-02-22 18:05:00,44.6,43.0,30.00,ESE,105,0.0,5.0,95,0.00,,,0.26,weatherlink.com 1.10,2013-02-23 00:05:00,
2013-02-22 18:20:00,44.5,43.0,29.95,NE,42,0.0,4.0,95,0.00,,,0.26,weatherlink.com 1.10,2013-02-23 00:20:00,
2013-02-22 18:35:00,44.3,43.0,29.93,ENE,76,0.0,2.0,95,0.00,,,0.26,weatherlink.com 1.10,2013-02-23 00:35:00,
2013-02-22 18:50:00,44.2,43.0,29.95,East,84,0.0,3.0,96,0.00,,,0.26,weatherlink.com 1.10,2013-02-23 00:50:00,
2013-02-22 19:05:00,44.2,43.0,29.99,NNE,22,1.0,2.0,96,0.00,,,0.26,weatherlink.com 1.10,2013-02-23 01:05:00,
2013-02-22 19:20:00,44.2,43.0,29.98,North,5,0.0,0.0,96,0.01,,,0.27,weatherlink.com 1.10,2013-02-23 01:20:00,
2013-02-22 19:35:00,44.2,43.0,30.00,NW,325,1.0,3.0,96,0.01,,,0.27,weatherlink.com 1.10,2013-02-23 01:35:00,
2013-02-22 19:50:00,44.2,43.0,30.03,NNW,327,0.0,5.0,96,0.02,,,0.28,weatherlink.com 1.10,2013-02-23 01:50:00,
2013-02-22 20:05:00,44.3,43.0,30.02,NNE,24,0.0,1.0,96,0.03,,,0.29,weatherlink.com 1.10,2013-02-23 02:05:00,
2013-02-22 20:21:00,44.3,43.0,30.03,ESE,103,0.0,1.0,96,0.03,,,0.30,weatherlink.com 1.10,2013-02-23 02:21:00,
2013-02-22 20:35:00,44.2,43.0,30.02,ENE,77,0.0,2.0,96,0.05,,,0.32,weatherlink.com 1.10,2013-02-23 02:35:00,
2013-02-22 20:50:00,43.9,43.0,30.02,SE,132,0.0,3.0,95,0.04,,,0.32,weatherlink.com 1.10,2013-02-23 02:50:00,
2013-02-22 21:05:00,43.7,42.0,30.01,SW,234,0.0,5.0,95,0.03,,,0.32,weatherlink.com 1.10,2013-02-23 03:05:00,
2013-02-22 21:20:00,43.6,42.0,29.99,SE,135,0.0,5.0,95,0.02,,,0.32,weatherlink.com 1.10,2013-02-23 03:20:00,
2013-02-22 21:35:00,43.4,42.0,29.98,SE,128,0.0,3.0,95,0.00,,,0.32,weatherlink.com 1.10,2013-02-23 03:35:00,
2013-02-22 21:50:00,43.4,42.0,29.98,North,5,0.0,1.0,95,0.00,,,0.32,weatherlink.com 1.10,2013-02-23 03:50:00,
2013-02-22 22:05:00,43.3,42.0,29.97,North,349,0.0,2.0,95,0.00,,,0.32,weatherlink.com 1.10,2013-02-23 04:05:00,
2013-02-22 22:20:00,43.2,42.0,29.95,East,96,0.0,1.0,96,0.00,,,0.32,weatherlink.com 1.10,2013-02-23 04:20:00,
2013-02-22 22:35:00,43.2,42.0,29.97,North,355,0.0,2.0,96,0.00,,,0.32,weatherlink.com 1.10,2013-02-23 04:35:00,
2013-02-22 22:50:00,43.3,42.0,29.97,ENE,72,0.0,4.0,96,0.03,,,0.35,weatherlink.com 1.10,2013-02-23 04:50:00,
2013-02-22 23:05:00,43.3,42.0,29.97,ENE,68,0.0,0.0,96,0.03,,,0.35,weatherlink.com 1.10,2013-02-23 05:05:00,
2013-02-22 23:20:00,43.5,43.0,30.00,NW,313,0.0,1.0,96,0.03,,,0.35,weatherlink.com 1.10,2013-02-23 05:20:00,
2013-02-22 23:35:00,43.5,43.0,29.97,NNE,13,0.0,1.0,96,0.06,,,0.38,weatherlink.com 1.10,2013-02-23 05:35:00,
2013-02-22 23:50:00,43.5,43.0,29.96,North,360,0.0,1.0,96,0.04,,,0.39,weatherlink.com 1.10,2013-02-23 05:50:00,